Aérodrome :
LOGIN :

S'inscrire | Disclaimer

   EN    FR    IT 

 










Légende :    VFR   VFR Marginal   IFR   IFR Intensif   IFR Très Intensif
Visi : 
Plafond : 
>= 8 km
>= 3000ft
5 à 8 km
1000 à 3000 ft
1500m à 5 km
500 à 1000 ft
800 à 1500m
200 à 500 ft
< 800m
< 200 ft
Symboles :   Orages  Brouillard  Fortes neiges  Fortes précipitations  Vent > 20 kt
SIGMETs :   Divers  Orages  Givrage  Turbulence  Onde Orograph.  Cendres Volcan.







- Altitude de l'aérodrome : 1306 ft
- Code IATA : ACH


LSZR - Alten Rhein

DERNIER METAR :
  • 290650Z VRB02KT 9999 FEW060 BKN090 17/12 Q1002 NOSIG RMK C

METARs EXPIRÉS :
  • 290620Z VRB02KT 9999 FEW060 BKN090 16/12 Q1002 NOSIG RMK C
  • 290550Z VRB02KT 9999 SCT045 BKN100 16/13 Q1001 NOSIG RMK B
  • 290520Z VRB02KT 9999 SCT045 BKN100 15/14 Q1001 NOSIG RMK B
  • 290450Z VRB02KT 9999 SCT045 BKN100 15/13 Q1001 NOSIG RMK A
  • 290420Z VRB02KT 9999 VCSH SCT050 BKN100 15/12 Q1001 NOSIG RMK A

TAF TAF LSZR
Valide du 29 à 06h jusqu'au 29 à 15h UTC


290525Z 2906/2915 VRB03KT 9999 SCT045 BKN100
TEMPO 2911/2915 SHRA SCT040TCU
ATIS : +41 71 858 51 66
Pas de NOTAMs connus pour ce terrain.



MET'MAP, la Météo Aéronautique d'un coup d'oeil ! - Copyright ORBIFLY Décembre 2007 - Disclaimer

ORBIFLY MET'MAP TEAM :

Programmation & Développement : Alexandra Zaïnal
Conception & Développement : Baudouin d'Aumeries
Co-Programmation & Développement : Marc-Olivier Méhu
Soutien technique & logistique : Manuel Goepfert

Contact : metmap@orbifly.com




SOURCES & CREDITS :

   NOAA